createdAt,value
2023-04-15T00:00:15.404Z,5.24
2023-04-15T00:01:15.502Z,5.23
2023-04-15T00:02:15.641Z,5.23
2023-04-15T00:03:15.812Z,5.22
2023-04-15T00:04:15.770Z,5.24
2023-04-15T00:05:15.789Z,5.24
2023-04-15T00:06:15.921Z,5.27
2023-04-15T00:07:15.979Z,5.27
2023-04-15T00:08:16.064Z,5.27
2023-04-15T00:09:16.149Z,5.26
2023-04-15T00:10:16.256Z,5.26
2023-04-15T00:11:16.312Z,5.26
2023-04-15T00:12:16.382Z,5.26
2023-04-15T00:13:16.455Z,5.23
2023-04-15T00:14:16.561Z,5.22
2023-04-15T00:15:16.627Z,5.22
2023-04-15T00:16:16.760Z,5.23
2023-04-15T00:17:16.790Z,5.22
2023-04-15T00:18:16.934Z,5.20
2023-04-15T00:19:16.956Z,5.20
2023-04-15T00:20:17.090Z,5.15
2023-04-15T00:21:17.168Z,5.12
2023-04-15T00:22:17.225Z,5.08
2023-04-15T00:23:17.327Z,5.05
2023-04-15T00:24:17.378Z,4.99
2023-04-15T00:25:17.476Z,4.96
2023-04-15T00:26:17.598Z,4.94
2023-04-15T00:27:17.659Z,4.93
2023-04-15T00:28:17.736Z,4.91
2023-04-15T00:29:17.809Z,4.91
2023-04-15T00:30:17.965Z,4.88
2023-04-15T00:31:18.065Z,4.86
2023-04-15T00:32:18.170Z,4.83
2023-04-15T00:33:18.133Z,4.80
2023-04-15T00:34:18.235Z,4.75
2023-04-15T00:35:18.343Z,4.74
2023-04-15T00:36:18.446Z,4.77
2023-04-15T00:37:18.507Z,4.83
2023-04-15T00:38:18.616Z,4.86
2023-04-15T00:39:18.667Z,4.88
2023-04-15T00:40:18.768Z,4.91
2023-04-15T00:41:18.834Z,4.94
2023-04-15T00:42:18.889Z,4.93
2023-04-15T00:43:18.975Z,4.88
2023-04-15T00:44:19.064Z,4.87
2023-04-15T00:45:19.143Z,4.86
2023-04-15T00:46:19.325Z,4.84
2023-04-15T00:47:19.300Z,4.79
2023-04-15T00:48:19.373Z,4.77
2023-04-15T00:49:19.442Z,4.71
2023-04-15T00:50:19.547Z,4.71
2023-04-15T00:51:19.645Z,4.69
2023-04-15T00:52:19.722Z,4.68
2023-04-15T00:53:19.802Z,4.64
2023-04-15T00:54:19.895Z,4.61
2023-04-15T00:55:19.955Z,4.57
2023-04-15T00:56:20.068Z,4.59
2023-04-15T00:57:20.128Z,4.59
2023-04-15T00:58:20.234Z,4.56
2023-04-15T00:59:20.314Z,4.56
2023-04-15T01:00:20.401Z,4.50
2023-04-15T01:01:20.495Z,4.42
2023-04-15T01:02:20.642Z,4.21
2023-04-15T01:03:20.848Z,4.18
2023-04-15T01:04:20.798Z,4.31
2023-04-15T01:05:20.816Z,4.36
2023-04-15T01:06:20.942Z,4.39
2023-04-15T01:07:20.969Z,4.35
2023-04-15T01:08:21.066Z,4.29
2023-04-15T01:09:21.142Z,4.31
2023-04-15T01:10:21.222Z,4.31
2023-04-15T01:11:21.325Z,4.34
2023-04-15T01:12:21.402Z,4.42
2023-04-15T01:13:21.477Z,4.49
2023-04-15T01:14:21.568Z,4.54
2023-04-15T01:15:21.641Z,4.59
2023-04-15T01:16:21.808Z,4.57
2023-04-15T01:17:21.839Z,4.61
2023-04-15T01:18:21.919Z,4.64
2023-04-15T01:19:21.996Z,4.65
2023-04-15T01:20:22.095Z,4.67
2023-04-15T01:21:22.202Z,4.68
2023-04-15T01:22:22.250Z,4.71
2023-04-15T01:23:22.329Z,4.71
2023-04-15T01:24:22.425Z,4.72
2023-04-15T01:25:22.501Z,4.69
2023-04-15T01:26:22.587Z,4.74
2023-04-15T01:27:22.625Z,4.75
2023-04-15T01:28:22.699Z,4.74
2023-04-15T01:29:22.768Z,4.71
2023-04-15T01:30:22.872Z,4.69
2023-04-15T01:31:22.990Z,4.64
2023-04-15T01:32:23.038Z,4.62
2023-04-15T01:33:23.105Z,4.54
2023-04-15T01:34:23.201Z,4.51
2023-04-15T01:35:23.284Z,4.50
2023-04-15T01:36:23.406Z,4.49
2023-04-15T01:37:23.439Z,4.39
2023-04-15T01:38:23.533Z,4.42
2023-04-15T01:39:23.604Z,4.39
2023-04-15T01:40:23.684Z,4.35
2023-04-15T01:41:23.839Z,4.35
2023-04-15T01:42:23.855Z,4.34
2023-04-15T01:43:23.956Z,4.32
2023-04-15T01:44:24.018Z,4.32
2023-04-15T01:45:24.119Z,4.35
2023-04-15T01:46:24.262Z,4.42
2023-04-15T01:47:24.299Z,4.43
2023-04-15T01:48:24.363Z,4.43
2023-04-15T01:49:24.454Z,4.39
2023-04-15T01:50:24.533Z,4.38
2023-04-15T01:51:24.642Z,4.34
2023-04-15T01:52:24.700Z,4.35
2023-04-15T01:53:24.786Z,4.34
2023-04-15T01:54:24.862Z,4.32
2023-04-15T01:55:24.943Z,4.35
2023-04-15T01:56:25.062Z,4.32
2023-04-15T01:57:25.108Z,4.14
2023-04-15T01:58:25.193Z,4.13
2023-04-15T01:59:25.291Z,4.13
2023-04-15T02:00:25.374Z,4.10
2023-04-15T02:01:25.515Z,4.11
2023-04-15T02:02:25.561Z,4.11
2023-04-15T02:03:25.718Z,4.10
2023-04-15T02:04:25.684Z,4.07
2023-04-15T02:05:25.756Z,4.04
2023-04-15T02:06:25.859Z,4.00
2023-04-15T02:07:25.917Z,3.99
2023-04-15T02:08:25.969Z,3.95
2023-04-15T02:09:26.070Z,3.93
2023-04-15T02:10:26.158Z,3.93
2023-04-15T02:11:26.270Z,3.93
2023-04-15T02:12:26.353Z,3.92
2023-04-15T02:13:26.450Z,3.95
2023-04-15T02:14:26.529Z,3.93
2023-04-15T02:15:26.638Z,3.93
2023-04-15T02:16:26.788Z,3.90
2023-04-15T02:17:26.785Z,3.89
2023-04-15T02:18:26.845Z,3.78
2023-04-15T02:19:26.942Z,3.75
2023-04-15T02:20:27.027Z,3.80
2023-04-15T02:21:27.156Z,3.78
2023-04-15T02:22:27.234Z,3.72
2023-04-15T02:23:27.323Z,3.63
2023-04-15T02:24:27.394Z,3.59
2023-04-15T02:25:27.499Z,3.44
2023-04-15T02:26:27.571Z,3.22
2023-04-15T02:27:27.627Z,3.13
2023-04-15T02:28:27.682Z,3.07
2023-04-15T02:29:27.782Z,3.05
2023-04-15T02:30:27.857Z,3.15
2023-04-15T02:31:28.019Z,3.17
2023-04-15T02:32:28.068Z,3.20
2023-04-15T02:33:28.101Z,3.25
2023-04-15T02:34:28.172Z,3.28
2023-04-15T02:35:28.245Z,3.28
2023-04-15T02:36:28.334Z,3.28
2023-04-15T02:37:28.411Z,3.37
2023-04-15T02:38:28.475Z,3.45
2023-04-15T02:39:28.571Z,3.49
2023-04-15T02:40:28.649Z,3.52
2023-04-15T02:41:28.777Z,3.54
2023-04-15T02:42:28.819Z,3.54
2023-04-15T02:43:28.906Z,3.53
2023-04-15T02:44:28.991Z,3.53
2023-04-15T02:45:29.074Z,3.50
2023-04-15T02:46:29.283Z,3.50
2023-04-15T02:47:29.234Z,3.45
2023-04-15T02:48:29.292Z,3.45
2023-04-15T02:49:29.380Z,3.42
2023-04-15T02:50:30.015Z,3.41
2023-04-15T02:51:29.730Z,3.42
2023-04-15T02:52:29.644Z,3.45
2023-04-15T02:53:29.896Z,3.52
2023-04-15T02:54:29.820Z,3.54
2023-04-15T02:55:29.894Z,3.59
2023-04-15T02:56:30.095Z,3.60
2023-04-15T02:57:30.037Z,3.62
2023-04-15T02:58:30.122Z,3.62
2023-04-15T02:59:30.225Z,3.60
2023-04-15T03:00:30.279Z,3.56
2023-04-15T03:01:30.412Z,3.53
2023-04-15T03:02:30.570Z,3.50
2023-04-15T03:03:30.602Z,3.46
2023-04-15T03:04:30.677Z,3.42
2023-04-15T03:05:30.716Z,3.39
2023-04-15T03:06:30.811Z,3.39
2023-04-15T03:07:30.847Z,3.39
2023-04-15T03:08:30.923Z,3.44
2023-04-15T03:09:30.986Z,3.44
2023-04-15T03:10:31.082Z,3.45
2023-04-15T03:11:31.157Z,3.45
2023-04-15T03:12:31.236Z,3.46
2023-04-15T03:13:31.384Z,3.52
2023-04-15T03:14:31.415Z,3.53
2023-04-15T03:15:31.503Z,3.54
2023-04-15T03:16:31.559Z,3.53
2023-04-15T03:17:31.623Z,3.49
2023-04-15T03:18:31.687Z,3.46
2023-04-15T03:19:31.762Z,3.49
2023-04-15T03:20:31.932Z,3.46
2023-04-15T03:21:31.935Z,3.46
2023-04-15T03:22:32.024Z,3.49
2023-04-15T03:23:32.142Z,3.53
2023-04-15T03:24:32.180Z,3.57
2023-04-15T03:25:32.258Z,3.59
2023-04-15T03:26:32.404Z,3.56
2023-04-15T03:27:32.422Z,3.52
2023-04-15T03:28:32.485Z,3.50
2023-04-15T03:29:32.546Z,3.49
2023-04-15T03:30:32.657Z,3.50
2023-04-15T03:31:32.781Z,3.46
2023-04-15T03:32:32.836Z,3.49
2023-04-15T03:33:32.893Z,3.49
2023-04-15T03:34:32.975Z,3.50
2023-04-15T03:35:33.048Z,3.50
2023-04-15T03:36:33.187Z,3.46
2023-04-15T03:37:33.180Z,3.45
2023-04-15T03:38:33.272Z,3.44
2023-04-15T03:39:33.356Z,3.42
2023-04-15T03:40:33.441Z,3.41
2023-04-15T03:41:33.571Z,3.41
2023-04-15T03:42:33.631Z,3.45
2023-04-15T03:43:33.704Z,3.45
2023-04-15T03:44:33.777Z,3.45
2023-04-15T03:45:33.872Z,3.45
2023-04-15T03:46:33.974Z,3.44
2023-04-15T03:47:34.052Z,3.45
2023-04-15T03:48:34.084Z,3.44
2023-04-15T03:49:34.154Z,3.45
2023-04-15T03:50:34.251Z,3.45
2023-04-15T03:51:34.354Z,3.49
2023-04-15T03:52:34.429Z,3.45
2023-04-15T03:53:34.505Z,3.42
2023-04-15T03:54:34.598Z,3.41
2023-04-15T03:55:34.685Z,3.39
2023-04-15T03:56:34.787Z,3.37
2023-04-15T03:57:34.836Z,3.37
2023-04-15T03:58:34.912Z,3.34
2023-04-15T03:59:35.004Z,3.30
2023-04-15T04:00:35.091Z,3.20
2023-04-15T04:01:35.208Z,3.15
2023-04-15T04:02:35.446Z,3.13
2023-04-15T04:03:35.593Z,3.13
2023-04-15T04:04:35.529Z,3.13
2023-04-15T04:05:35.529Z,3.10
2023-04-15T04:06:36.040Z,3.12
2023-04-15T04:07:35.719Z,3.17
2023-04-15T04:08:35.835Z,3.20
2023-04-15T04:09:35.906Z,3.22
2023-04-15T04:10:36.002Z,3.22
2023-04-15T04:11:36.407Z,3.25
2023-04-15T04:12:36.138Z,3.25
2023-04-15T04:13:36.204Z,3.25
2023-04-15T04:14:36.275Z,3.23
2023-04-15T04:15:36.399Z,3.23
2023-04-15T04:16:36.526Z,3.25
2023-04-15T04:17:36.518Z,3.20
2023-04-15T04:18:36.574Z,3.19
2023-04-15T04:19:36.662Z,3.20
2023-04-15T04:20:36.780Z,3.28
2023-04-15T04:21:36.849Z,3.26
2023-04-15T04:22:36.929Z,3.28
2023-04-15T04:23:36.984Z,3.28
2023-04-15T04:24:37.093Z,3.25
2023-04-15T04:25:37.169Z,3.25
2023-04-15T04:26:37.265Z,3.25
2023-04-15T04:27:37.333Z,3.23
2023-04-15T04:28:37.404Z,3.22
2023-04-15T04:29:37.472Z,3.17
2023-04-15T04:30:37.554Z,3.15
2023-04-15T04:31:37.664Z,3.16
2023-04-15T04:32:37.749Z,3.13
2023-04-15T04:33:37.769Z,3.13
2023-04-15T04:34:37.870Z,3.13
2023-04-15T04:35:37.969Z,3.13
2023-04-15T04:36:38.028Z,3.10
2023-04-15T04:37:38.106Z,3.10
2023-04-15T04:38:38.147Z,3.08
2023-04-15T04:39:38.230Z,3.05
2023-04-15T04:40:38.300Z,3.07
2023-04-15T04:41:38.377Z,3.05
2023-04-15T04:42:39.982Z,3.05
2023-04-15T04:43:38.557Z,3.02
2023-04-15T04:44:38.644Z,3.05
2023-04-15T04:45:38.744Z,3.05
2023-04-15T04:46:38.803Z,3.07
2023-04-15T04:47:38.868Z,3.05
2023-04-15T04:48:38.953Z,3.05
2023-04-15T04:49:39.017Z,3.05
2023-04-15T04:50:39.096Z,3.05
2023-04-15T04:51:39.185Z,3.05
2023-04-15T04:52:39.264Z,3.04
2023-04-15T04:53:39.355Z,3.05
2023-04-15T04:54:39.441Z,3.01
2023-04-15T04:55:39.537Z,2.99
2023-04-15T04:56:39.637Z,2.99
2023-04-15T04:57:39.719Z,2.97
2023-04-15T04:58:39.773Z,2.98
2023-04-15T04:59:39.844Z,2.98
2023-04-15T05:00:39.916Z,2.98
2023-04-15T05:01:40.069Z,3.01
2023-04-15T05:02:40.137Z,2.99
2023-04-15T05:03:40.242Z,3.01
2023-04-15T05:04:40.209Z,3.04
2023-04-15T05:05:40.284Z,3.02
2023-04-15T05:06:40.387Z,3.04
2023-04-15T05:07:40.448Z,3.04
2023-04-15T05:08:40.572Z,3.05
2023-04-15T05:09:40.597Z,3.08
2023-04-15T05:10:40.676Z,3.08
2023-04-15T05:11:40.769Z,3.08
2023-04-15T05:12:40.829Z,3.10
2023-04-15T05:13:40.898Z,3.12
2023-04-15T05:14:41.006Z,3.13
2023-04-15T05:15:41.116Z,3.16
2023-04-15T05:16:41.164Z,3.22
2023-04-15T05:17:41.243Z,3.22
2023-04-15T05:18:41.345Z,3.23
2023-04-15T05:19:41.393Z,3.28
2023-04-15T05:20:41.511Z,3.28
2023-04-15T05:21:41.585Z,3.28
2023-04-15T05:22:41.644Z,3.33
2023-04-15T05:23:41.729Z,3.35
2023-04-15T05:24:41.836Z,3.41
2023-04-15T05:25:41.884Z,3.41
2023-04-15T05:26:42.920Z,3.44
2023-04-15T05:27:42.075Z,3.45
2023-04-15T05:28:42.165Z,3.46
2023-04-15T05:29:42.254Z,3.53
2023-04-15T05:30:42.343Z,3.56
2023-04-15T05:31:42.559Z,3.59
2023-04-15T05:32:42.549Z,3.63
2023-04-15T05:33:42.595Z,3.70
2023-04-15T05:34:42.690Z,3.70
2023-04-15T05:35:42.776Z,3.74
2023-04-15T05:36:42.897Z,3.75
2023-04-15T05:37:42.934Z,3.80
2023-04-15T05:38:43.021Z,3.84
2023-04-15T05:39:43.104Z,3.89
2023-04-15T05:40:43.196Z,3.95
2023-04-15T05:41:43.389Z,4.00
2023-04-15T05:42:43.387Z,4.04
2023-04-15T05:43:43.458Z,4.06
2023-04-15T05:44:43.567Z,4.08
2023-04-15T05:45:43.631Z,4.13
2023-04-15T05:46:43.788Z,4.17
2023-04-15T05:47:43.807Z,4.21
2023-04-15T05:48:43.863Z,4.29
2023-04-15T05:49:43.949Z,4.32
2023-04-15T05:50:44.052Z,4.39
2023-04-15T05:51:44.131Z,4.44
2023-04-15T05:52:44.236Z,4.50
2023-04-15T05:53:44.289Z,4.54
2023-04-15T05:54:44.375Z,4.61
2023-04-15T05:55:44.459Z,4.65
2023-04-15T05:56:44.560Z,4.69
2023-04-15T05:57:44.655Z,4.79
2023-04-15T05:58:44.730Z,4.86
2023-04-15T05:59:44.814Z,4.93
2023-04-15T06:00:44.871Z,4.99
2023-04-15T06:01:44.981Z,5.08
2023-04-15T06:02:45.195Z,5.15
2023-04-15T06:03:45.343Z,5.24
2023-04-15T06:04:45.226Z,5.32
2023-04-15T06:05:45.273Z,5.41
2023-04-15T06:06:45.372Z,5.49
2023-04-15T06:07:47.279Z,5.56
2023-04-15T06:08:45.489Z,5.62
2023-04-15T06:09:45.598Z,5.69
2023-04-15T06:10:45.666Z,5.78
2023-04-15T06:11:45.762Z,5.88
2023-04-15T06:12:45.829Z,5.96
2023-04-15T06:13:45.907Z,6.10
2023-04-15T06:14:45.964Z,6.21
2023-04-15T06:15:46.071Z,6.28
2023-04-15T06:16:46.135Z,6.42
2023-04-15T06:17:46.247Z,6.53
2023-04-15T06:18:46.284Z,6.68
2023-04-15T06:19:46.384Z,6.76
2023-04-15T06:20:46.465Z,6.87
2023-04-15T06:21:46.568Z,6.97
2023-04-15T06:22:46.622Z,7.12
2023-04-15T06:23:46.696Z,7.26
2023-04-15T06:24:46.772Z,7.41
2023-04-15T06:25:46.838Z,7.66
2023-04-15T06:26:46.912Z,8.10
2023-04-15T06:27:46.993Z,8.61
2023-04-15T06:28:47.062Z,9.17
2023-04-15T06:29:47.128Z,9.88
2023-04-15T06:30:47.198Z,10.62
2023-04-15T06:31:47.331Z,11.16
2023-04-15T06:32:47.481Z,11.62
2023-04-15T06:33:47.472Z,11.96
2023-04-15T06:34:47.541Z,12.15
2023-04-15T06:35:47.628Z,12.16
2023-04-15T06:36:47.741Z,11.88
2023-04-15T06:37:47.804Z,11.72
2023-04-15T06:38:47.852Z,11.62
2023-04-15T06:39:47.940Z,11.49
2023-04-15T06:40:48.043Z,11.46
2023-04-15T06:41:48.132Z,11.46
2023-04-15T06:42:48.212Z,11.26
2023-04-15T06:43:48.307Z,11.03
2023-04-15T06:44:48.370Z,10.94
2023-04-15T06:45:48.488Z,10.95
2023-04-15T06:46:48.542Z,10.62
2023-04-15T06:47:48.643Z,10.65
2023-04-15T06:48:48.697Z,10.75
2023-04-15T06:49:48.782Z,10.95
2023-04-15T06:50:48.851Z,11.11
2023-04-15T06:51:50.554Z,11.30
2023-04-15T06:52:49.018Z,11.41
2023-04-15T06:53:49.094Z,11.44
2023-04-15T06:54:49.156Z,11.62
2023-04-15T06:55:49.233Z,11.75
2023-04-15T06:56:49.292Z,11.96
2023-04-15T06:57:49.433Z,12.15
2023-04-15T06:58:49.458Z,11.87
2023-04-15T06:59:49.539Z,11.66
2023-04-15T07:00:49.638Z,11.62
2023-04-15T07:01:49.744Z,11.46
2023-04-15T07:02:49.858Z,11.35
2023-04-15T07:03:49.911Z,11.33
2023-04-15T07:04:49.916Z,11.39
2023-04-15T07:05:49.994Z,11.46
2023-04-15T07:06:50.056Z,11.57
2023-04-15T07:07:50.159Z,11.66
2023-04-15T07:08:50.202Z,11.75
2023-04-15T07:09:50.281Z,11.82
2023-04-15T07:10:50.345Z,11.88
2023-04-15T07:11:50.425Z,11.94
2023-04-15T07:12:50.499Z,12.01
2023-04-15T07:13:50.576Z,11.98
2023-04-15T07:14:50.633Z,11.94
2023-04-15T07:15:50.734Z,11.85
2023-04-15T07:16:50.834Z,11.82
2023-04-15T07:17:50.989Z,11.82
2023-04-15T07:18:50.963Z,11.72
2023-04-15T07:19:51.020Z,11.36
2023-04-15T07:20:51.079Z,11.11
2023-04-15T07:21:51.163Z,11.12
2023-04-15T07:22:51.273Z,11.16
2023-04-15T07:23:51.307Z,11.16
2023-04-15T07:24:51.369Z,11.13
2023-04-15T07:25:51.479Z,11.03
2023-04-15T07:26:51.560Z,11.03
2023-04-15T07:27:51.673Z,11.11
2023-04-15T07:28:51.699Z,11.20
2023-04-15T07:29:51.789Z,11.26
2023-04-15T07:30:51.884Z,11.42
2023-04-15T07:31:51.936Z,11.51
2023-04-15T07:32:52.043Z,11.60
2023-04-15T07:33:52.079Z,11.75
2023-04-15T07:34:52.145Z,11.82
2023-04-15T07:35:52.222Z,12.01
2023-04-15T07:36:52.350Z,12.16
2023-04-15T07:37:52.393Z,12.38
2023-04-15T07:38:52.452Z,12.62
2023-04-15T07:39:52.527Z,12.80
2023-04-15T07:40:52.596Z,12.92
2023-04-15T07:41:52.662Z,12.92
2023-04-15T07:42:52.753Z,12.84
2023-04-15T07:43:52.801Z,12.95
2023-04-15T07:44:52.893Z,13.06
2023-04-15T07:45:53.002Z,13.17
2023-04-15T07:46:53.047Z,13.29
2023-04-15T07:47:53.221Z,13.39
2023-04-15T07:48:53.193Z,13.32
2023-04-15T07:49:53.294Z,13.44
2023-04-15T07:50:53.370Z,13.57
2023-04-15T07:51:53.460Z,13.35
2023-04-15T07:52:53.560Z,13.47
2023-04-15T07:53:53.642Z,13.51
2023-04-15T07:54:53.724Z,13.57
2023-04-15T07:55:53.810Z,13.69
2023-04-15T07:56:53.897Z,13.62
2023-04-15T07:57:53.999Z,13.72
2023-04-15T07:58:54.075Z,13.86
2023-04-15T07:59:54.134Z,14.05
2023-04-15T08:00:54.200Z,14.21
2023-04-15T08:01:54.352Z,14.34
2023-04-15T08:02:54.541Z,14.30
2023-04-15T08:03:54.673Z,14.30
2023-04-15T08:04:54.685Z,14.31
2023-04-15T08:05:54.623Z,14.39
2023-04-15T08:06:54.721Z,14.44
2023-04-15T08:07:54.826Z,14.54
2023-04-15T08:08:54.857Z,14.72
2023-04-15T08:09:54.934Z,14.87
2023-04-15T08:10:55.010Z,14.94
2023-04-15T08:11:55.096Z,14.95
2023-04-15T08:12:55.196Z,14.98
2023-04-15T08:13:55.261Z,14.91
2023-04-15T08:14:55.338Z,14.90
2023-04-15T08:15:55.441Z,14.93
2023-04-15T08:16:55.505Z,14.85
2023-04-15T08:17:55.664Z,14.75
2023-04-15T08:18:55.699Z,14.64
2023-04-15T08:19:55.764Z,14.64
2023-04-15T08:20:55.827Z,14.63
2023-04-15T08:21:55.910Z,14.57
2023-04-15T08:22:56.011Z,14.44
2023-04-15T08:23:56.061Z,14.45
2023-04-15T08:24:56.131Z,14.49
2023-04-15T08:25:56.217Z,14.44
2023-04-15T08:26:56.323Z,14.52
2023-04-15T08:27:56.403Z,14.52
2023-04-15T08:28:56.510Z,14.61
2023-04-15T08:29:56.575Z,14.60
2023-04-15T08:30:56.644Z,14.49
2023-04-15T08:31:56.813Z,14.34
2023-04-15T08:32:56.915Z,14.34
2023-04-15T08:33:56.908Z,14.34
2023-04-15T08:34:56.966Z,14.29
2023-04-15T08:35:57.071Z,14.35
2023-04-15T08:36:57.140Z,14.53
2023-04-15T08:37:57.225Z,14.57
2023-04-15T08:38:57.295Z,14.59
2023-04-15T08:39:57.367Z,14.83
2023-04-15T08:40:57.446Z,15.07
2023-04-15T08:41:57.509Z,15.38
2023-04-15T08:42:57.606Z,15.67
2023-04-15T08:43:57.698Z,16.04
2023-04-15T08:44:57.772Z,16.40
2023-04-15T08:45:57.858Z,16.54
2023-04-15T08:46:57.971Z,16.59
2023-04-15T08:47:58.079Z,16.90
2023-04-15T08:48:58.084Z,17.17
2023-04-15T08:49:58.148Z,17.43
2023-04-15T08:50:58.226Z,17.55
2023-04-15T08:51:58.291Z,17.33
2023-04-15T08:52:58.412Z,17.22
2023-04-15T08:53:58.466Z,16.96
2023-04-15T08:54:58.635Z,16.69
2023-04-15T08:55:58.634Z,16.36
2023-04-15T08:56:58.734Z,16.22
2023-04-15T08:57:58.802Z,16.11
2023-04-15T08:58:58.880Z,15.93
2023-04-15T08:59:58.937Z,15.91
2023-04-15T09:00:59.069Z,15.80
2023-04-15T09:01:59.131Z,15.70
2023-04-15T09:02:59.267Z,15.49
2023-04-15T09:03:59.295Z,15.03
2023-04-15T09:04:59.337Z,14.75
2023-04-15T09:05:59.398Z,14.64
2023-04-15T09:06:59.493Z,14.72
2023-04-15T09:07:59.586Z,14.67
2023-04-15T09:08:59.947Z,14.83
2023-04-15T09:09:59.737Z,14.95
2023-04-15T09:10:59.837Z,15.01
2023-04-15T09:11:59.898Z,15.18
2023-04-15T09:13:00.032Z,15.40
2023-04-15T09:14:00.091Z,15.56
2023-04-15T09:15:00.174Z,15.35
2023-04-15T09:16:00.248Z,15.30
2023-04-15T09:17:00.452Z,15.46
2023-04-15T09:18:00.426Z,15.51
2023-04-15T09:19:00.711Z,15.60
2023-04-15T09:20:00.562Z,15.59
2023-04-15T09:21:00.638Z,15.68
2023-04-15T09:22:00.715Z,15.74
2023-04-15T09:23:00.823Z,15.85
2023-04-15T09:24:01.194Z,15.84
2023-04-15T09:25:00.930Z,15.93
2023-04-15T09:26:01.004Z,15.85
2023-04-15T09:27:01.114Z,15.59
2023-04-15T09:28:01.198Z,15.62
2023-04-15T09:29:01.231Z,15.86
2023-04-15T09:30:01.313Z,15.92
2023-04-15T09:31:01.411Z,16.11
2023-04-15T09:32:01.551Z,16.27
2023-04-15T09:33:01.560Z,16.44
2023-04-15T09:34:01.844Z,16.85
2023-04-15T09:35:01.700Z,17.46
2023-04-15T09:36:01.781Z,18.07
2023-04-15T09:37:01.858Z,18.54
2023-04-15T09:38:01.932Z,18.97
2023-04-15T09:39:02.013Z,19.25
2023-04-15T09:40:02.055Z,19.01
2023-04-15T09:41:02.169Z,18.68
2023-04-15T09:42:02.244Z,18.47
2023-04-15T09:43:02.364Z,18.36
2023-04-15T09:44:02.503Z,18.41
2023-04-15T09:45:02.472Z,18.94
2023-04-15T09:46:02.577Z,18.57
2023-04-15T09:47:02.622Z,18.49
2023-04-15T09:48:02.793Z,18.42
2023-04-15T09:49:02.740Z,18.35
2023-04-15T09:50:02.951Z,18.47
2023-04-15T09:51:02.879Z,18.56
2023-04-15T09:52:06.258Z,18.41
2023-04-15T09:53:03.059Z,18.25
2023-04-15T09:54:03.327Z,18.13
2023-04-15T09:55:03.202Z,18.02
2023-04-15T09:56:03.257Z,17.71
2023-04-15T09:57:03.394Z,17.80
2023-04-15T09:58:03.461Z,17.92
2023-04-15T09:59:03.521Z,17.92
2023-04-15T10:00:03.597Z,17.71
2023-04-15T10:01:03.716Z,17.62
2023-04-15T10:02:03.806Z,17.47
2023-04-15T10:03:04.104Z,17.30
2023-04-15T10:04:04.177Z,17.35
2023-04-15T10:05:04.026Z,17.32
2023-04-15T10:06:04.088Z,17.33
2023-04-15T10:07:04.181Z,17.09
2023-04-15T10:08:04.303Z,16.78
2023-04-15T10:09:04.374Z,16.82
2023-04-15T10:10:04.512Z,17.03
2023-04-15T10:11:04.518Z,17.24
2023-04-15T10:12:04.582Z,17.58
2023-04-15T10:13:04.717Z,17.57
2023-04-15T10:14:04.983Z,17.60
2023-04-15T10:15:04.835Z,17.76
2023-04-15T10:16:05.021Z,17.63
2023-04-15T10:17:05.001Z,17.32
2023-04-15T10:18:05.118Z,17.33
2023-04-15T10:19:05.127Z,17.38
2023-04-15T10:20:05.347Z,17.43
2023-04-15T10:21:05.306Z,17.65
2023-04-15T10:22:05.408Z,17.70
2023-04-15T10:23:06.889Z,17.54
2023-04-15T10:24:05.581Z,17.54
2023-04-15T10:25:05.643Z,17.46
2023-04-15T10:26:05.719Z,17.55
2023-04-15T10:27:05.792Z,17.51
2023-04-15T10:28:05.889Z,17.27
2023-04-15T10:29:05.951Z,16.92
2023-04-15T10:30:06.038Z,16.65
2023-04-15T10:31:06.185Z,16.55
2023-04-15T10:32:06.224Z,16.50
2023-04-15T10:33:06.340Z,16.41
2023-04-15T10:34:06.398Z,16.13
2023-04-15T10:35:06.445Z,16.08
2023-04-15T10:36:06.544Z,16.07
2023-04-15T10:37:06.608Z,15.98
2023-04-15T10:38:06.712Z,15.89
2023-04-15T10:39:06.752Z,15.91
2023-04-15T10:40:06.861Z,15.99
2023-04-15T10:41:06.917Z,15.99
2023-04-15T10:42:06.995Z,15.80
2023-04-15T10:43:07.084Z,15.76
2023-04-15T10:44:07.136Z,15.70
2023-04-15T10:45:07.201Z,15.56
2023-04-15T10:46:07.313Z,15.51
2023-04-15T10:47:07.357Z,15.49
2023-04-15T10:48:07.529Z,15.55
2023-04-15T10:49:07.527Z,15.59
2023-04-15T10:50:07.618Z,15.49
2023-04-15T10:51:07.696Z,15.43
2023-04-15T10:52:07.786Z,15.31
2023-04-15T10:53:07.887Z,15.40
2023-04-15T10:54:08.080Z,15.55
2023-04-15T10:55:08.040Z,15.64
2023-04-15T10:56:08.120Z,15.70
2023-04-15T10:57:08.203Z,15.60
2023-04-15T10:58:08.312Z,15.59
2023-04-15T10:59:08.389Z,15.51
2023-04-15T11:00:08.463Z,15.59
2023-04-15T11:01:08.525Z,15.64
2023-04-15T11:02:08.785Z,15.67
2023-04-15T11:03:08.949Z,15.71
2023-04-15T11:04:08.962Z,15.76
2023-04-15T11:05:08.877Z,15.81
2023-04-15T11:06:08.976Z,15.91
2023-04-15T11:07:09.030Z,15.81
2023-04-15T11:08:09.127Z,15.68
2023-04-15T11:09:09.182Z,15.51
2023-04-15T11:10:09.257Z,15.40
2023-04-15T11:11:09.346Z,15.55
2023-04-15T11:12:09.443Z,15.52
2023-04-15T11:13:09.551Z,15.46
2023-04-15T11:14:10.522Z,15.48
2023-04-15T11:15:09.665Z,15.48
2023-04-15T11:16:09.774Z,15.59
2023-04-15T11:17:09.796Z,15.62
2023-04-15T11:18:09.937Z,15.56
2023-04-15T11:19:09.969Z,15.70
2023-04-15T11:20:10.066Z,15.70
2023-04-15T11:21:10.131Z,15.64
2023-04-15T11:22:10.200Z,15.56
2023-04-15T11:23:15.007Z,15.55
2023-04-15T11:24:10.364Z,15.73
2023-04-15T11:25:10.425Z,15.91
2023-04-15T11:26:10.490Z,16.14
2023-04-15T11:27:10.560Z,16.30
2023-04-15T11:28:10.704Z,16.33
2023-04-15T11:29:10.748Z,16.22
2023-04-15T11:30:10.817Z,16.07
2023-04-15T11:31:10.950Z,15.93
2023-04-15T11:32:11.058Z,15.73
2023-04-15T11:33:11.036Z,15.70
2023-04-15T11:34:11.096Z,15.64
2023-04-15T11:35:11.189Z,15.41
2023-04-15T11:36:11.294Z,15.48
2023-04-15T11:37:11.345Z,15.48
2023-04-15T11:38:11.470Z,15.55
2023-04-15T11:39:11.519Z,15.64
2023-04-15T11:40:11.618Z,15.68
2023-04-15T11:41:11.710Z,15.66
2023-04-15T11:42:11.804Z,15.49
2023-04-15T11:43:11.904Z,15.23
2023-04-15T11:44:12.003Z,15.13
2023-04-15T11:45:12.088Z,15.15
2023-04-15T11:46:12.237Z,15.13
2023-04-15T11:47:12.281Z,14.87
2023-04-15T11:48:12.410Z,14.86
2023-04-15T11:49:12.469Z,14.87
2023-04-15T11:50:12.568Z,14.95
2023-04-15T11:51:12.660Z,14.93
2023-04-15T11:52:12.797Z,14.82
2023-04-15T11:53:12.841Z,14.66
2023-04-15T11:54:12.900Z,14.72
2023-04-15T11:55:12.968Z,14.79
2023-04-15T11:56:13.057Z,14.80
2023-04-15T11:57:13.124Z,14.82
2023-04-15T11:58:15.072Z,14.79
2023-04-15T11:59:13.253Z,14.75
2023-04-15T12:00:13.345Z,14.80
2023-04-15T12:01:13.401Z,14.79
2023-04-15T12:02:13.629Z,14.78
2023-04-15T12:03:13.745Z,14.67
2023-04-15T12:04:13.769Z,14.59
2023-04-15T12:05:13.766Z,14.56
2023-04-15T12:06:13.821Z,14.45
2023-04-15T12:07:13.885Z,14.42
2023-04-15T12:08:13.998Z,14.38
2023-04-15T12:09:14.022Z,14.34
2023-04-15T12:10:14.104Z,14.30
2023-04-15T12:11:14.172Z,14.35
2023-04-15T12:12:14.256Z,14.38
2023-04-15T12:13:14.346Z,14.39
2023-04-15T12:14:14.441Z,14.31
2023-04-15T12:15:14.524Z,14.30
2023-04-15T12:16:14.704Z,14.34
2023-04-15T12:17:14.681Z,14.41
2023-04-15T12:18:14.832Z,14.45
2023-04-15T12:19:14.851Z,14.52
2023-04-15T12:20:14.939Z,14.56
2023-04-15T12:21:15.018Z,14.56
2023-04-15T12:22:15.109Z,14.56
2023-04-15T12:23:15.185Z,14.54
2023-04-15T12:24:15.228Z,14.54
2023-04-15T12:25:15.311Z,14.53
2023-04-15T12:26:15.400Z,14.56
2023-04-15T12:27:15.467Z,14.54
2023-04-15T12:28:15.585Z,14.59
2023-04-15T12:29:15.657Z,14.53
2023-04-15T12:30:15.739Z,14.54
2023-04-15T12:31:15.847Z,14.54
2023-04-15T12:32:15.881Z,14.48
2023-04-15T12:33:15.966Z,14.45
2023-04-15T12:34:16.046Z,14.34
2023-04-15T12:35:16.131Z,14.34
2023-04-15T12:36:16.209Z,14.36
2023-04-15T12:37:16.300Z,14.34
2023-04-15T12:38:16.409Z,14.35
2023-04-15T12:39:16.447Z,14.34
2023-04-15T12:40:16.542Z,14.38
2023-04-15T12:41:16.612Z,14.39
2023-04-15T12:42:16.700Z,14.26
2023-04-15T12:43:16.853Z,14.35
2023-04-15T12:44:16.853Z,14.42
2023-04-15T12:45:16.928Z,14.48
2023-04-15T12:46:17.088Z,14.56
2023-04-15T12:47:17.181Z,14.56
2023-04-15T12:48:17.227Z,14.48
2023-04-15T12:49:17.276Z,14.46
2023-04-15T12:50:17.353Z,14.38
2023-04-15T12:51:17.410Z,14.30
2023-04-15T12:52:17.486Z,14.20
2023-04-15T12:53:17.640Z,14.11
2023-04-15T12:54:17.654Z,14.04
2023-04-15T12:55:17.736Z,13.94
2023-04-15T12:56:17.796Z,13.86
2023-04-15T12:57:17.875Z,13.75
2023-04-15T12:58:17.988Z,13.71
2023-04-15T12:59:18.042Z,13.66
2023-04-15T13:00:18.143Z,13.59
2023-04-15T13:01:18.219Z,13.50
2023-04-15T13:02:18.384Z,13.47
2023-04-15T13:03:18.432Z,13.41
2023-04-15T13:04:18.536Z,13.31
2023-04-15T13:05:18.542Z,13.21
2023-04-15T13:06:18.631Z,13.19